Aérodrome :
LOGIN :

S'inscrire | Disclaimer

   EN    FR    IT 

 










Légende :    VFR   VFR Marginal   IFR   IFR Intensif   IFR Très Intensif
Visi : 
Plafond : 
>= 8 km
>= 3000ft
5 à 8 km
1000 à 3000 ft
1500m à 5 km
500 à 1000 ft
800 à 1500m
200 à 500 ft
< 800m
< 200 ft
Symboles :   Orages  Brouillard  Fortes neiges  Fortes précipitations  Vent > 20 kt
SIGMETs :   Divers  Orages  Givrage  Turbulence  Onde Orograph.  Cendres Volcan.






- Altitude de l'aérodrome : 1860 ft
- Code IATA : GRX


LEGR - Granada

DERNIER METAR :
  • 011500Z AUTO VRB01KT 9999 -RA FEW029 BKN049 11/08 Q1012

METARs EXPIRÉS :
  • 011430Z AUTO 27010KT 240V300 9999 -RA BKN043 11/08 Q1013
  • 011400Z AUTO 28007KT 240V300 9999 BKN049 OVC058 12/07 Q1012
  • 011330Z AUTO 28008KT 250V320 9999 FEW040 BKN046 BKN055 13/07 Q1012
  • 011300Z AUTO 28010KT 260V340 9999 SCT037 SCT044 BKN050 12/08 Q1013
  • 011230Z AUTO 23002KT 9999 FEW037 OVC046 11/08 Q1013

TAF TAF LEGR
Valide du 01 à 15h jusqu'au 02 à 15h UTC


011400Z 0115/0215 27010KT 9999 BKN050 TX16/0115Z TN04/0206Z
PROB40
TEMPO 0115/0121 4000 SHRA SCT025TCU BKN035
BECMG 0121/0124 13005KT
TEMPO 0205/0215 3000 SHRA SCT020TCU



MET'MAP, la Météo Aéronautique d'un coup d'oeil ! - Copyright ORBIFLY Décembre 2007 - Disclaimer

ORBIFLY MET'MAP TEAM :

Programmation & Développement : Alexandra Zaïnal
Sur une idée originale de : Baudouin d'Aumeries
Assistance à la programmation : Marc-Olivier Méhu
Soutien technique & logistique : Manuel Goepfert

Contact : metmap@orbifly.com




SOURCES & CREDITS :

   NOAA